Time;durP1;ratioP1;P1;durP2;ratioP2;P2;SDS_P1;SDS_P2;PMS_P1;PMS_P2;Temp;Humidity;BMP_temperature;BMP_pressure;BME280_temperature;BME280_humidity;BME280_pressure;Samples;Min_cycle;Max_cycle;Signal;HPM_P1;HPM_P2
2021/08/04 00:00:37;;;;;;;7.40;5.30;;;;;;;15.64;74.28;100290.56;91312;1244;73798;-61
2021/08/04 00:03:02;;;;;;;5.70;5.20;;;;;;;15.63;74.30;100296.25;91279;1244;80057;-59
2021/08/04 00:05:14;;;;;;;6.80;5.90;;;;;;;15.59;74.48;100282.23;91516;1242;67839;-57
2021/08/04 00:07:26;;;;;;;8.10;5.20;;;;;;;15.54;74.48;100289.41;91613;1242;68424;-59
2021/08/04 00:10:26;;;;;;;7.10;4.90;;;;;;;15.48;74.64;100291.14;91655;1241;86450;-56
2021/08/04 00:12:38;;;;;;;5.30;4.80;;;;;;;15.44;74.79;100287.15;91624;1244;74810;-60
2021/08/04 00:17:39;;;;;;;6.10;5.00;;;;;;;15.38;75.28;100291.59;91510;1242;66903;-63
2021/08/04 00:19:51;;;;;;;6.20;5.00;;;;;;;15.34;75.28;100290.39;91638;1241;67919;-64
2021/08/04 00:22:33;;;;;;;5.60;5.10;;;;;;;15.33;75.43;100287.88;91617;1242;85839;-63
2021/08/04 00:24:41;;;;;;;6.10;5.50;;;;;;;15.32;75.47;100280.79;91569;1242;75447;-64
2021/08/04 00:26:52;;;;;;;6.10;5.50;;;;;;;15.36;75.53;100291.00;91620;1243;80632;-64
2021/08/04 00:29:02;;;;;;;5.80;4.90;;;;;;;15.34;75.88;100293.12;91650;1243;65897;-64
2021/08/04 00:31:10;;;;;;;6.40;5.40;;;;;;;15.30;75.76;100285.59;91607;1244;68481;-63
2021/08/04 00:33:18;;;;;;;6.30;5.00;;;;;;;15.27;75.75;100283.35;91640;1241;86938;-63
2021/08/04 00:35:27;;;;;;;5.60;5.00;;;;;;;15.27;76.17;100283.35;91597;1242;74897;-56
2021/08/04 00:37:37;;;;;;;6.60;5.50;;;;;;;15.30;76.32;100289.16;91659;1242;81366;-58
2021/08/04 00:39:46;;;;;;;6.00;5.40;;;;;;;15.36;76.29;100290.16;91573;1243;66048;-64
2021/08/04 00:41:53;;;;;;;6.90;6.20;;;;;;;15.36;76.61;100293.72;91539;1242;68552;-63
2021/08/04 00:44:02;;;;;;;7.50;6.60;;;;;;;15.38;76.45;100294.32;91673;1244;86381;-62
2021/08/04 00:46:11;;;;;;;6.50;5.10;;;;;;;15.41;76.72;100298.48;91590;1242;75744;-57
2021/08/04 00:48:20;;;;;;;7.50;5.40;;;;;;;15.46;76.67;100292.39;91643;1242;82575;-57
2021/08/04 00:54:13;;;;;;;6.20;5.40;;;;;;;15.60;77.14;100292.05;91511;1242;70550;-58
2021/08/04 00:56:22;;;;;;;6.30;5.70;;;;;;;15.61;77.02;100298.34;91438;1244;84327;-57
2021/08/04 00:58:55;;;;;;;7.60;5.30;;;;;;;15.63;77.02;100290.80;91493;1242;76480;-57
2021/08/04 01:01:08;;;;;;;8.20;5.20;;;;;;;15.67;77.04;100290.11;91434;1244;82831;-57
2021/08/04 01:03:19;;;;;;;7.70;5.20;;;;;;;15.77;77.31;100287.69;91501;1242;65533;-58
2021/08/04 01:05:38;;;;;;;6.10;5.50;;;;;;;15.83;77.18;100283.23;91407;1243;67607;-58
2021/08/04 01:07:54;;;;;;;6.00;5.40;;;;;;;15.83;77.14;100278.63;91478;1242;85135;-56
2021/08/04 01:10:09;;;;;;;6.40;5.60;;;;;;;15.80;77.18;100289.97;91437;1242;73557;-65
2021/08/04 01:12:25;;;;;;;5.50;5.00;;;;;;;15.80;77.22;100283.69;91463;1242;81618;-65
2021/08/04 01:14:36;;;;;;;6.10;5.30;;;;;;;15.83;77.28;100294.97;91507;1242;67543;-65
2021/08/04 01:16:47;;;;;;;7.70;5.60;;;;;;;15.91;77.38;100296.55;91521;1242;68952;-65
2021/08/04 01:19:01;;;;;;;8.40;5.70;;;;;;;15.98;77.28;100301.94;91455;1242;86613;-66
2021/08/04 01:21:11;;;;;;;6.20;5.60;;;;;;;16.01;77.41;100293.32;91469;1242;75305;-65
2021/08/04 01:23:31;;;;;;;6.10;5.50;;;;;;;16.06;77.23;100299.75;91415;1242;82217;-64
2021/08/04 01:25:52;;;;;;;6.00;5.40;;;;;;;16.06;77.15;100297.03;91559;1242;68670;-65
2021/08/04 01:28:22;;;;;;;6.90;5.60;;;;;;;16.03;76.81;100285.73;91621;1242;70153;-65
2021/08/04 01:30:30;;;;;;;7.80;5.90;;;;;;;16.06;76.93;100290.73;91640;1245;86202;-65
2021/08/04 01:36:19;;;;;;;6.30;5.70;;;;;;;15.98;76.94;100296.49;91495;1242;81689;-55
2021/08/04 01:38:28;;;;;;;6.70;6.00;;;;;;;15.94;76.89;100293.38;91450;1243;68295;-58
2021/08/04 01:40:38;;;;;;;6.50;5.80;;;;;;;15.92;77.14;100280.00;91604;1241;68878;-56
2021/08/04 01:42:46;;;;;;;7.40;6.10;;;;;;;15.97;77.09;100278.47;91465;1242;86395;-56
2021/08/04 01:44:59;;;;;;;7.00;6.30;;;;;;;15.99;77.16;100284.55;91636;1240;74449;-66
2021/08/04 01:47:09;;;;;;;7.40;6.70;;;;;;;15.93;77.11;100284.37;91596;1242;81247;-65
2021/08/04 01:49:20;;;;;;;14.90;6.20;;;;;;;15.97;76.80;100283.92;91612;1243;67772;-58
2021/08/04 01:51:29;;;;;;;7.20;6.50;;;;;;;15.95;76.93;100286.88;91612;1241;69781;-57
2021/08/04 01:53:41;;;;;;;7.70;6.80;;;;;;;15.88;76.98;100284.22;91620;1241;85233;-56
2021/08/04 01:55:52;;;;;;;8.90;6.80;;;;;;;15.88;76.90;100278.77;91635;1241;74964;-58
2021/08/04 01:58:00;;;;;;;8.80;6.60;;;;;;;15.87;76.87;100279.84;91613;1242;80623;-59
2021/08/04 02:00:14;;;;;;;10.70;6.30;;;;;;;15.91;76.94;100293.83;91559;1242;68484;-65
2021/08/04 02:02:25;;;;;;;10.40;6.90;;;;;;;15.92;76.80;100290.89;91756;1241;68076;-65
2021/08/04 02:04:33;;;;;;;10.10;6.00;;;;;;;15.92;77.12;100276.44;91745;1241;85567;-58
2021/08/04 02:34:56;;;;;;;8.60;7.00;;;;;;;16.06;77.18;100267.05;90774;1249;65307;-64
2021/08/04 02:37:04;;;;;;;12.50;6.70;;;;;;;16.07;77.20;100276.06;91035;1247;69489;-64
2021/08/04 02:39:12;;;;;;;9.60;6.50;;;;;;;16.09;77.34;100263.88;91071;1250;85831;-65
2021/08/04 02:41:21;;;;;;;8.80;6.50;;;;;;;16.14;77.29;100277.64;91135;1250;75480;-65
2021/08/04 02:43:30;;;;;;;8.20;7.40;;;;;;;16.24;77.40;100267.02;91123;1245;81605;-65
2021/08/04 02:45:38;;;;;;;9.20;6.90;;;;;;;16.23;77.26;100267.27;91133;1245;67012;-65
2021/08/04 02:47:46;;;;;;;10.30;7.10;;;;;;;16.27;77.39;100260.28;91187;1245;68428;-65
2021/08/04 02:49:54;;;;;;;8.40;7.10;;;;;;;16.32;77.20;100255.80;91120;1245;86829;-65
2021/08/04 02:52:02;;;;;;;11.40;7.50;;;;;;;16.34;77.09;100256.39;91169;1245;74869;-65
2021/08/04 02:54:12;;;;;;;8.10;7.00;;;;;;;16.35;77.24;100265.41;91135;1245;81832;-67
2021/08/04 02:56:20;;;;;;;9.00;7.00;;;;;;;16.35;77.23;100263.52;91147;1245;68204;-66
2021/08/04 02:58:28;;;;;;;8.20;7.30;;;;;;;16.36;77.38;100253.45;91148;1245;68702;-63
2021/08/04 03:00:36;;;;;;;10.20;7.80;;;;;;;16.33;77.49;100253.91;91092;1250;85780;-58
2021/08/04 03:02:44;;;;;;;10.90;7.20;;;;;;;16.33;77.41;100253.91;91251;1242;74432;-58
2021/08/04 03:04:51;;;;;;;9.80;7.40;;;;;;;16.36;77.32;100251.56;91429;1242;81995;-65
2021/08/04 03:07:01;;;;;;;11.00;7.80;;;;;;;16.37;77.48;100252.41;91428;1242;69421;-66
2021/08/04 03:09:09;;;;;;;9.20;7.30;;;;;;;16.41;77.27;100250.86;91465;1242;67166;-60
2021/08/04 03:11:17;;;;;;;8.70;7.80;;;;;;;16.45;77.29;100252.08;91428;1242;86580;-57
2021/08/04 03:13:24;;;;;;;9.80;7.30;;;;;;;16.50;77.26;100261.23;91448;1246;76129;-58
2021/08/04 03:15:33;;;;;;;8.70;7.20;;;;;;;16.50;77.01;100263.95;91459;1246;81047;-66
2021/08/04 03:17:40;;;;;;;10.00;8.40;;;;;;;16.51;76.93;100257.42;91440;1242;68696;-66
2021/08/04 03:19:48;;;;;;;10.90;7.30;;;;;;;16.57;76.79;100266.61;91426;1242;68486;-59
2021/08/04 03:21:56;;;;;;;9.90;8.00;;;;;;;16.56;76.97;100267.69;91437;1242;86210;-61
2021/08/04 03:24:04;;;;;;;9.20;7.80;;;;;;;16.55;77.13;100260.56;91467;1242;75648;-63
2021/08/04 03:26:12;;;;;;;10.80;8.20;;;;;;;16.59;76.88;100260.94;91446;1242;82214;-65
2021/08/04 03:28:19;;;;;;;10.60;7.30;;;;;;;16.61;76.85;100259.64;91435;1242;69140;-69
2021/08/04 03:30:27;;;;;;;11.40;8.40;;;;;;;16.66;76.89;100258.93;91471;1242;68980;-57
2021/08/04 03:32:36;;;;;;;10.80;7.90;;;;;;;16.70;76.87;100263.68;91428;1242;86079;-58
2021/08/04 03:34:43;;;;;;;11.70;9.00;;;;;;;16.75;76.75;100269.30;91472;1242;74907;-64
2021/08/04 03:36:51;;;;;;;12.30;9.30;;;;;;;16.75;76.78;100276.64;91346;1243;80437;-65
2021/08/04 03:38:59;;;;;;;16.20;10.10;;;;;;;16.77;76.70;100266.32;91427;1242;66220;-66
2021/08/04 03:41:07;;;;;;;11.40;10.20;;;;;;;16.80;76.51;100274.88;91481;1242;67851;-65
2021/08/04 03:43:15;;;;;;;12.50;9.70;;;;;;;16.78;76.53;100268.00;91435;1242;86382;-65
2021/08/04 03:45:22;;;;;;;12.30;9.10;;;;;;;16.77;76.50;100263.59;91483;1242;74373;-65
2021/08/04 03:47:30;;;;;;;11.90;9.60;;;;;;;16.76;76.66;100267.38;91445;1242;81450;-65
2021/08/04 03:49:38;;;;;;;10.90;9.40;;;;;;;16.74;76.59;100264.89;91434;1242;65946;-58
2021/08/04 03:51:46;;;;;;;11.30;9.60;;;;;;;16.72;76.56;100261.58;91451;1242;68798;-57
2021/08/04 03:53:53;;;;;;;14.20;9.50;;;;;;;16.76;76.48;100268.21;91443;1246;87313;-57
2021/08/04 03:56:01;;;;;;;11.50;8.50;;;;;;;16.82;76.48;100260.99;91444;1242;74289;-65
2021/08/04 03:58:09;;;;;;;13.80;9.30;;;;;;;16.87;76.58;100253.77;91468;1242;82003;-63
2021/08/04 04:00:17;;;;;;;10.90;8.90;;;;;;;16.89;76.40;100269.92;91460;1242;65347;-64
2021/08/04 04:02:25;;;;;;;10.10;8.30;;;;;;;16.87;76.57;100264.69;91478;1242;68328;-64
2021/08/04 04:04:33;;;;;;;9.70;7.80;;;;;;;16.87;76.63;100270.14;91462;1242;86487;-64
2021/08/04 04:06:41;;;;;;;9.90;8.50;;;;;;;16.88;76.63;100274.55;91464;1242;75531;-63
2021/08/04 04:08:48;;;;;;;9.90;8.30;;;;;;;16.93;76.59;100268.38;91415;1242;81649;-63
2021/08/04 04:10:56;;;;;;;10.20;8.20;;;;;;;16.95;76.77;100263.51;91444;1242;67107;-64
2021/08/04 04:13:04;;;;;;;9.90;8.00;;;;;;;17.00;76.64;100264.47;91455;1242;68749;-63
2021/08/04 04:15:13;;;;;;;10.70;8.10;;;;;;;17.09;76.53;100276.72;91453;1246;86566;-63
2021/08/04 04:17:21;;;;;;;9.70;7.90;;;;;;;17.19;76.52;100267.13;91490;1242;74837;-63
2021/08/04 04:19:28;;;;;;;10.70;8.20;;;;;;;17.29;76.42;100273.67;91436;1242;81655;-59
2021/08/04 04:21:36;;;;;;;11.50;8.10;;;;;;;17.36;76.53;100274.38;91446;1242;66604;-57
2021/08/04 04:23:44;;;;;;;10.90;8.20;;;;;;;17.38;76.52;100272.26;91557;1242;68253;-58
2021/08/04 04:25:51;;;;;;;11.50;8.30;;;;;;;17.41;76.41;100270.95;91573;1240;85797;-63
2021/08/04 04:27:59;;;;;;;10.70;7.50;;;;;;;17.42;76.23;100278.05;91627;1245;75684;-61
2021/08/04 04:30:09;;;;;;;10.80;8.50;;;;;;;17.41;76.31;100277.25;91635;1241;81284;-58
2021/08/04 04:32:17;;;;;;;11.20;8.40;;;;;;;17.40;76.42;100282.94;91649;1242;66253;-57
2021/08/04 04:34:25;;;;;;;10.60;8.40;;;;;;;17.45;76.23;100277.59;91651;1241;69400;-57
2021/08/04 04:36:33;;;;;;;9.90;8.20;;;;;;;17.48;76.22;100271.66;91602;1240;86311;-59
2021/08/04 04:38:41;;;;;;;10.60;8.50;;;;;;;17.55;76.28;100275.95;91616;1242;74846;-58
2021/08/04 04:40:48;;;;;;;10.50;8.40;;;;;;;17.63;76.19;100272.05;91642;1240;80691;-64
2021/08/04 04:42:56;;;;;;;13.80;8.40;;;;;;;17.70;76.26;100278.22;91654;1245;66377;-64
2021/08/04 04:45:04;;;;;;;15.10;9.50;;;;;;;17.80;76.03;100274.89;91621;1242;69072;-62
2021/08/04 04:47:12;;;;;;;12.60;8.70;;;;;;;17.87;75.98;100275.59;91571;1242;85584;-63
2021/08/04 04:49:19;;;;;;;10.80;8.00;;;;;;;17.91;75.88;100274.86;91570;1242;75391;-63
2021/08/04 04:51:27;;;;;;;10.90;8.10;;;;;;;17.91;76.04;100274.86;91641;1240;82273;-62
2021/08/04 04:53:34;;;;;;;8.80;7.40;;;;;;;17.97;75.95;100284.00;91469;1242;66202;-62
2021/08/04 04:55:42;;;;;;;8.80;7.20;;;;;;;17.96;75.96;100275.00;91598;1240;68053;-57
2021/08/04 04:57:50;;;;;;;9.20;7.00;;;;;;;18.01;75.95;100274.27;91634;1241;86453;-58
2021/08/04 04:59:57;;;;;;;10.40;6.90;;;;;;;18.08;75.82;100283.98;91600;1244;76009;-63
2021/08/04 05:02:06;;;;;;;9.40;7.20;;;;;;;18.16;75.82;100277.30;91622;1240;81936;-63
2021/08/04 05:04:14;;;;;;;9.10;7.30;;;;;;;18.43;75.81;100280.34;91671;1240;66514;-63
2021/08/04 05:06:21;;;;;;;8.10;7.30;;;;;;;18.79;75.75;100275.31;91611;1241;69555;-64
2021/08/04 05:08:29;;;;;;;8.00;7.20;;;;;;;19.16;75.48;100272.97;91591;1242;85180;-63
2021/08/04 05:10:37;;;;;;;9.60;7.70;;;;;;;19.57;75.22;100276.38;91593;1242;74886;-63
2021/08/04 05:12:44;;;;;;;12.50;8.30;;;;;;;20.33;74.42;100272.78;91586;1242;81426;-63
2021/08/04 05:14:52;;;;;;;10.60;7.50;;;;;;;21.02;73.88;100273.80;91605;1241;66439;-57
2021/08/04 05:17:00;;;;;;;7.40;6.60;;;;;;;21.73;72.64;100262.30;91746;1239;68520;-58
2021/08/04 05:19:08;;;;;;;9.10;6.30;;;;;;;21.71;71.60;100264.49;91860;1239;85704;-64
2021/08/04 05:21:15;;;;;;;6.90;6.30;;;;;;;22.31;71.21;100268.67;91810;1239;74737;-63
2021/08/04 05:23:23;;;;;;;7.00;6.20;;;;;;;23.78;70.31;100270.55;91769;1239;81632;-63
2021/08/04 05:25:31;;;;;;;7.80;7.00;;;;;;;24.29;68.25;100265.70;91816;1239;65762;-64
2021/08/04 05:27:39;;;;;;;6.70;6.10;;;;;;;24.82;66.58;100268.77;91860;1240;69353;-63
2021/08/04 05:29:46;;;;;;;7.50;6.50;;;;;;;24.81;65.56;100273.47;91860;1242;84819;-65
2021/08/04 05:31:54;;;;;;;6.40;5.70;;;;;;;25.45;64.03;100275.20;91803;1239;74895;-63
2021/08/04 05:34:01;;;;;;;6.30;5.50;;;;;;;25.27;63.40;100270.39;91822;1240;81635;-61
2021/08/04 05:36:09;;;;;;;6.60;6.00;;;;;;;25.35;63.06;100275.30;91813;1239;66678;-64
2021/08/04 05:38:17;;;;;;;8.80;5.60;;;;;;;25.64;62.15;100271.45;91833;1240;67944;-66
2021/08/04 05:40:25;;;;;;;6.30;5.70;;;;;;;26.44;61.32;100268.08;91806;1239;86681;-60
2021/08/04 05:42:32;;;;;;;7.30;5.60;;;;;;;27.05;59.51;100265.30;91841;1239;73924;-60
2021/08/04 05:44:40;;;;;;;9.00;5.90;;;;;;;27.08;58.11;100279.39;91681;1240;81366;-59
2021/08/04 05:46:48;;;;;;;8.40;5.90;;;;;;;26.16;57.63;100278.95;91776;1239;67490;-57
2021/08/04 05:48:59;;;;;;;7.50;6.40;;;;;;;25.20;57.73;100279.83;91846;1239;68417;-57
2021/08/04 05:51:06;;;;;;;7.50;5.40;;;;;;;24.49;58.57;100287.72;91856;1240;86927;-59
2021/08/04 05:53:14;;;;;;;7.40;5.50;;;;;;;24.04;58.89;100288.67;91843;1239;74488;-62
2021/08/04 05:55:22;;;;;;;7.70;5.70;;;;;;;23.67;59.41;100290.98;91807;1243;81995;-59
2021/08/04 05:57:29;;;;;;;9.70;6.40;;;;;;;23.27;59.67;100297.28;91853;1239;65722;-59
2021/08/04 05:59:37;;;;;;;8.30;5.00;;;;;;;22.86;60.21;100306.59;91826;1239;69358;-56
2021/08/04 06:01:44;;;;;;;6.80;5.50;;;;;;;22.49;60.75;100312.26;91767;1240;86438;-59
2021/08/04 06:03:52;;;;;;;8.70;5.20;;;;;;;22.03;61.40;100329.64;91828;1239;75151;-60
2021/08/04 06:06:00;;;;;;;8.00;5.50;;;;;;;21.62;61.98;100323.81;91835;1239;80744;-65
2021/08/04 06:08:10;;;;;;;7.20;5.60;;;;;;;21.18;62.14;100323.16;91888;1240;67604;-63
2021/08/04 06:10:18;;;;;;;6.70;6.00;;;;;;;20.73;62.96;100332.83;91976;1239;68277;-67
2021/08/04 06:12:26;;;;;;;6.80;6.00;;;;;;;20.45;63.56;100333.86;92052;1237;85253;-65
2021/08/04 06:14:34;;;;;;;8.50;5.80;;;;;;;20.25;63.73;100328.94;92035;1237;76003;-57
2021/08/04 06:16:41;;;;;;;7.80;5.70;;;;;;;20.06;64.38;100335.77;92017;1241;81185;-59
2021/08/04 06:18:49;;;;;;;8.40;5.90;;;;;;;19.83;64.88;100336.80;92028;1237;67046;-57
2021/08/04 06:21:00;;;;;;;7.90;6.30;;;;;;;19.61;65.59;100329.62;92102;1237;68611;-66
2021/08/04 06:23:07;;;;;;;8.60;6.00;;;;;;;19.40;66.28;100329.28;92126;1237;87056;-64
2021/08/04 06:25:15;;;;;;;7.60;6.30;;;;;;;19.28;66.66;100333.15;92089;1237;75472;-61
2021/08/04 06:27:23;;;;;;;6.80;5.80;;;;;;;19.17;67.21;100337.59;92122;1240;81464;-64
2021/08/04 06:29:31;;;;;;;7.60;6.00;;;;;;;19.03;67.57;100336.27;92107;1236;66815;-57
2021/08/04 06:31:39;;;;;;;7.50;6.40;;;;;;;18.95;67.93;100338.57;92120;1237;69751;-57
2021/08/04 06:33:46;;;;;;;6.90;6.10;;;;;;;18.83;68.74;100336.72;92118;1236;85501;-58
2021/08/04 06:35:54;;;;;;;9.90;6.90;;;;;;;18.80;69.21;100331.73;92092;1237;74690;-58
2021/08/04 06:38:05;;;;;;;7.00;6.10;;;;;;;18.76;69.59;100324.27;92071;1237;82405;-57
2021/08/04 06:40:15;;;;;;;7.20;6.50;;;;;;;18.73;69.90;100327.48;92085;1237;65476;-59
2021/08/04 06:42:23;;;;;;;7.10;6.40;;;;;;;18.73;70.00;100324.75;92091;1237;68894;-58
2021/08/04 06:44:30;;;;;;;7.20;6.40;;;;;;;18.67;70.54;100328.45;92076;1237;87159;-65
2021/08/04 06:46:40;;;;;;;7.00;6.40;;;;;;;18.66;70.48;100329.52;92009;1238;76127;-64
2021/08/04 06:48:47;;;;;;;8.30;6.90;;;;;;;18.72;70.55;100326.64;92033;1237;81183;-64
2021/08/04 06:50:55;;;;;;;7.20;6.00;;;;;;;18.70;70.89;100327.97;92047;1239;67237;-57
2021/08/04 06:53:03;;;;;;;6.60;5.90;;;;;;;18.72;71.18;100332.12;92003;1237;68613;-57
2021/08/04 06:55:13;;;;;;;7.40;6.60;;;;;;;18.76;71.01;100340.68;92045;1237;85549;-64
2021/08/04 06:57:23;;;;;;;8.20;7.10;;;;;;;18.78;71.35;100344.83;92083;1237;74875;-69
2021/08/04 06:59:31;;;;;;;8.20;7.00;;;;;;;18.84;71.55;100345.77;92052;1236;81919;-63
2021/08/04 07:01:40;;;;;;;7.80;7.00;;;;;;;18.85;71.49;100348.23;92068;1237;68627;-65
2021/08/04 07:03:48;;;;;;;8.20;6.70;;;;;;;18.85;71.89;100344.67;92148;1238;68476;-63
2021/08/04 07:05:55;;;;;;;8.20;7.10;;;;;;;18.85;71.91;100341.93;92060;1236;85251;-65
2021/08/04 07:08:04;;;;;;;8.40;7.60;;;;;;;18.90;72.06;100347.50;92127;1237;75114;-66
2021/08/04 07:10:17;;;;;;;8.30;6.90;;;;;;;18.83;72.12;100344.92;92078;1237;81710;-64
2021/08/04 07:12:25;;;;;;;7.90;7.10;;;;;;;18.80;72.22;100344.58;92012;1238;68786;-65
2021/08/04 07:14:32;;;;;;;8.30;7.50;;;;;;;18.84;72.42;100341.09;92035;1237;69353;-63
2021/08/04 07:16:40;;;;;;;8.20;7.10;;;;;;;18.79;72.56;100340.16;92075;1237;86166;-61
2021/08/04 07:18:47;;;;;;;9.20;8.20;;;;;;;18.77;72.47;100345.89;92137;1238;75386;-62
2021/08/04 07:20:55;;;;;;;8.30;7.10;;;;;;;18.71;72.76;100344.13;92108;1237;80550;-64
2021/08/04 07:23:03;;;;;;;8.50;6.70;;;;;;;18.66;72.72;100345.93;92121;1238;69211;-62
2021/08/04 07:25:14;;;;;;;8.10;7.30;;;;;;;18.60;72.84;100338.69;92108;1237;67786;-65
2021/08/04 07:27:21;;;;;;;8.70;7.10;;;;;;;18.57;73.30;100328.27;92093;1237;84623;-67
2021/08/04 07:29:32;;;;;;;9.00;7.10;;;;;;;18.53;73.45;100336.11;92071;1237;74658;-62
2021/08/04 07:31:41;;;;;;;8.80;7.80;;;;;;;18.51;73.24;100340.17;92031;1238;81370;-61
2021/08/04 07:33:48;;;;;;;12.60;7.80;;;;;;;18.53;73.24;100346.22;92081;1237;65386;-62
2021/08/04 07:35:56;;;;;;;8.80;7.30;;;;;;;18.50;73.73;100335.76;92086;1236;70048;-64
2021/08/04 07:38:03;;;;;;;7.70;6.90;;;;;;;18.54;73.60;100345.16;92136;1237;86283;-61
2021/08/04 07:40:14;;;;;;;11.30;7.00;;;;;;;18.57;73.97;100337.27;92083;1237;75146;-63
2021/08/04 07:42:23;;;;;;;9.50;7.00;;;;;;;18.62;74.27;100342.03;92121;1238;80256;-61
2021/08/04 07:44:30;;;;;;;8.00;7.20;;;;;;;18.62;74.11;100340.11;92092;1237;65617;-63
2021/08/04 07:46:38;;;;;;;7.40;6.70;;;;;;;18.58;74.13;100346.31;92140;1237;67579;-64
2021/08/04 07:48:46;;;;;;;7.60;6.80;;;;;;;18.49;74.04;100334.92;92107;1237;85872;-64
2021/08/04 07:50:54;;;;;;;7.60;6.80;;;;;;;18.47;74.37;100338.94;92088;1237;76069;-66
2021/08/04 07:53:01;;;;;;;8.00;6.50;;;;;;;18.43;74.19;100343.25;92103;1239;81834;-63
2021/08/04 07:55:13;;;;;;;8.20;7.10;;;;;;;18.45;74.66;100338.36;92068;1237;66111;-64
2021/08/04 07:57:21;;;;;;;7.60;6.60;;;;;;;18.42;74.66;100338.84;92142;1239;67756;-68
2021/08/04 07:59:29;;;;;;;12.40;8.00;;;;;;;18.42;74.58;100345.15;92091;1237;86021;-66
2021/08/04 08:01:36;;;;;;;7.80;7.00;;;;;;;18.49;74.63;100345.03;92114;1237;75975;-64
2021/08/04 08:03:44;;;;;;;7.60;6.70;;;;;;;18.49;75.01;100345.86;92088;1236;81426;-64
2021/08/04 08:05:55;;;;;;;8.60;6.60;;;;;;;18.52;74.97;100344.55;92105;1237;67945;-60
2021/08/04 08:08:05;;;;;;;8.80;6.90;;;;;;;18.57;75.39;100348.22;92151;1237;68870;-62
2021/08/04 08:10:14;;;;;;;8.40;7.20;;;;;;;18.59;74.97;100350.73;92107;1237;84983;-63
2021/08/04 08:12:22;;;;;;;8.00;7.20;;;;;;;18.57;74.99;100356.42;92125;1237;74973;-64
2021/08/04 08:14:31;;;;;;;9.30;7.30;;;;;;;18.58;75.06;100354.52;92109;1237;81881;-66
2021/08/04 08:16:42;;;;;;;10.90;7.70;;;;;;;18.60;75.23;100357.84;92092;1238;68021;-63
2021/08/04 08:18:49;;;;;;;9.40;7.40;;;;;;;18.63;75.32;100363.67;92084;1237;69395;-60
2021/08/04 08:20:57;;;;;;;12.20;7.90;;;;;;;18.57;75.39;100361.09;92075;1237;84754;-65
2021/08/04 08:23:05;;;;;;;9.70;7.40;;;;;;;18.59;75.78;100369.88;92125;1237;74735;-64
2021/08/04 08:25:15;;;;;;;10.20;7.70;;;;;;;18.58;75.78;100362.73;92141;1237;80608;-66
2021/08/04 08:27:22;;;;;;;10.10;7.70;;;;;;;18.59;75.97;100365.25;92089;1237;68059;-69
2021/08/04 08:29:30;;;;;;;9.20;8.00;;;;;;;18.58;76.04;100358.09;92123;1237;70288;-69
2021/08/04 08:31:38;;;;;;;11.60;7.30;;;;;;;18.63;76.05;100362.84;92115;1237;86914;-67
2021/08/04 08:33:47;;;;;;;8.40;7.00;;;;;;;18.66;75.94;100368.66;92152;1237;76333;-68
2021/08/04 08:35:54;;;;;;;7.90;7.00;;;;;;;18.66;76.11;100359.61;92071;1237;81367;-65
2021/08/04 08:38:02;;;;;;;9.90;7.20;;;;;;;18.64;76.10;100359.03;92093;1237;66029;-68
2021/08/04 08:40:13;;;;;;;8.90;6.40;;;;;;;18.62;75.80;100356.52;92110;1237;68634;-66
2021/08/04 08:42:23;;;;;;;8.90;7.30;;;;;;;18.60;76.05;100360.58;92000;1240;84521;-66
2021/08/04 08:44:30;;;;;;;8.80;6.50;;;;;;;18.61;76.27;100371.30;92137;1240;74173;-66
2021/08/04 08:46:41;;;;;;;8.10;6.90;;;;;;;18.61;76.14;100370.46;92133;1237;80500;-59
2021/08/04 08:48:51;;;;;;;7.80;6.60;;;;;;;18.59;76.27;100365.25;92146;1237;66210;-62
2021/08/04 08:50:59;;;;;;;8.20;6.60;;;;;;;18.57;76.40;100366.56;92126;1237;68647;-58
2021/08/04 08:53:07;;;;;;;8.60;6.60;;;;;;;18.53;76.35;100377.15;92185;1237;85553;-58
2021/08/04 08:55:15;;;;;;;8.80;6.10;;;;;;;18.52;76.60;100377.38;92088;1237;74651;-57
2021/08/04 08:57:23;;;;;;;7.20;5.70;;;;;;;18.53;76.59;100379.05;92113;1237;80974;-59
2021/08/04 08:59:31;;;;;;;10.40;6.40;;;;;;;18.50;76.72;100369.42;92125;1237;65855;-64
2021/08/04 09:01:41;;;;;;;7.70;5.80;;;;;;;18.52;76.81;100370.01;92128;1237;67650;-71
2021/08/04 09:03:49;;;;;;;8.90;5.60;;;;;;;18.49;76.35;100377.86;92141;1237;85779;-65
2021/08/04 09:05:58;;;;;;;7.80;5.70;;;;;;;18.47;76.42;100375.34;92101;1237;75242;-64
2021/08/04 09:08:21;;;;;;;7.10;5.40;;;;;;;18.42;76.68;100386.18;92129;1239;80274;-67
2021/08/04 09:10:35;;;;;;;10.10;5.60;;;;;;;18.36;76.48;100383.56;92107;1237;68544;-64
2021/08/04 09:12:51;;;;;;;6.10;4.90;;;;;;;18.35;76.43;100379.99;92120;1237;69355;-63
2021/08/04 09:14:59;;;;;;;5.90;5.20;;;;;;;18.28;76.73;100379.30;92124;1237;86265;-57
2021/08/04 09:17:10;;;;;;;6.60;4.70;;;;;;;18.23;76.72;100379.20;92144;1237;74145;-57
2021/08/04 09:19:25;;;;;;;6.10;4.40;;;;;;;18.18;76.80;100377.16;92125;1237;80715;-69
2021/08/04 09:21:32;;;;;;;6.00;4.60;;;;;;;18.15;77.02;100383.13;92120;1237;68430;-66
2021/08/04 09:23:47;;;;;;;6.60;4.00;;;;;;;18.09;76.80;100381.34;92116;1237;69952;-73
2021/08/04 09:26:10;;;;;;;6.00;4.40;;;;;;;18.05;77.03;100382.88;92081;1237;87214;-56
2021/08/04 09:28:18;;;;;;;5.50;4.10;;;;;;;18.07;77.03;100383.50;92047;1242;74276;-56
2021/08/04 09:30:30;;;;;;;5.40;4.00;;;;;;;18.02;77.04;100377.89;92080;1237;81299;-67
2021/08/04 09:32:38;;;;;;;5.70;3.70;;;;;;;18.03;77.07;100378.72;92158;1240;67006;-68
2021/08/04 09:34:48;;;;;;;4.50;3.30;;;;;;;18.05;76.88;100382.05;92105;1237;68931;-56
2021/08/04 09:37:02;;;;;;;5.60;3.00;;;;;;;18.05;76.99;100376.58;92060;1237;85415;-56
2021/08/04 09:39:14;;;;;;;5.30;3.10;;;;;;;18.02;76.95;100364.22;92071;1237;75225;-57
2021/08/04 09:41:24;;;;;;;5.40;3.30;;;;;;;18.07;77.34;100364.36;92043;1238;80427;-65
2021/08/04 09:43:35;;;;;;;4.30;3.60;;;;;;;18.15;77.18;100365.89;92100;1237;66669;-63
2021/08/04 09:45:47;;;;;;;4.70;3.30;;;;;;;18.20;77.05;100364.10;92087;1237;69834;-57
2021/08/04 09:48:08;;;;;;;4.60;3.70;;;;;;;18.29;77.32;100368.11;92098;1237;85412;-57
2021/08/04 09:50:16;;;;;;;6.90;3.40;;;;;;;18.36;77.20;100367.99;92135;1237;75503;-57
2021/08/04 09:52:26;;;;;;;4.00;3.00;;;;;;;18.45;77.10;100366.55;92094;1238;81450;-55
2021/08/04 09:54:43;;;;;;;4.60;3.10;;;;;;;18.46;77.27;100361.92;92126;1237;66963;-59
2021/08/04 09:56:58;;;;;;;3.90;2.90;;;;;;;18.50;76.83;100372.16;92131;1237;68702;-64
2021/08/04 09:59:14;;;;;;;3.70;2.70;;;;;;;18.44;77.14;100369.52;92078;1237;85648;-64
2021/08/04 10:01:37;;;;;;;3.70;2.80;;;;;;;18.37;76.98;100361.46;92092;1237;74015;-66
2021/08/04 10:04:03;;;;;;;4.20;2.80;;;;;;;18.32;76.87;100368.72;92065;1237;81524;-66
2021/08/04 10:06:23;;;;;;;3.10;2.70;;;;;;;18.34;77.31;100370.14;92075;1237;66430;-64
2021/08/04 10:08:31;;;;;;;3.20;2.40;;;;;;;18.34;76.99;100364.67;92113;1237;69508;-65
2021/08/04 10:10:41;;;;;;;2.70;2.20;;;;;;;18.35;77.07;100366.31;92045;1237;86132;-65
2021/08/04 10:12:49;;;;;;;2.60;2.00;;;;;;;18.38;76.96;100365.00;92079;1237;73874;-65
2021/08/04 10:14:57;;;;;;;3.60;2.50;;;;;;;18.36;77.16;100367.99;92041;1237;81466;-56
2021/08/04 10:17:08;;;;;;;4.20;2.70;;;;;;;18.41;77.03;100375.46;92083;1236;66418;-58
2021/08/04 10:19:17;;;;;;;2.60;2.30;;;;;;;18.43;77.14;100378.81;92077;1237;68186;-64
2021/08/04 10:21:25;;;;;;;4.60;2.20;;;;;;;18.42;77.07;100388.08;92086;1237;84407;-66
2021/08/04 10:23:39;;;;;;;3.20;2.40;;;;;;;18.41;77.38;100389.14;92033;1237;74627;-66
2021/08/04 10:25:48;;;;;;;5.00;2.80;;;;;;;18.36;77.34;100383.56;92130;1237;81589;-65
2021/08/04 10:28:01;;;;;;;2.90;2.20;;;;;;;18.31;76.98;100384.30;92093;1237;66323;-65
2021/08/04 10:30:12;;;;;;;3.40;2.50;;;;;;;18.32;77.22;100398.81;92076;1238;68171;-56
2021/08/04 10:32:20;;;;;;;2.90;1.90;;;;;;;18.31;76.82;100383.46;92058;1237;86713;-57
2021/08/04 10:34:29;;;;;;;2.30;1.80;;;;;;;18.24;77.04;100398.09;92061;1237;75104;-57
2021/08/04 10:36:41;;;;;;;2.90;1.90;;;;;;;18.19;77.22;100391.67;92034;1237;81531;-65
2021/08/04 10:38:54;;;;;;;4.20;2.50;;;;;;;18.19;77.32;100397.14;92052;1237;67179;-64
2021/08/04 10:41:25;;;;;;;;;;;;;;;18.18;77.35;100392.77;92004;1237;67603;-56